sensor_id;sensor_type;location;lat;lon;timestamp;P1;durP1;ratioP1;P2;durP2;ratioP2
5010;SDS011;2524;54.364;10.072;2023-08-07T00:01:50;2.37;;;2.17;;
5010;SDS011;2524;54.364;10.072;2023-08-07T00:04:16;1.70;;;1.60;;
5010;SDS011;2524;54.364;10.072;2023-08-07T00:06:41;1.73;;;1.63;;
5010;SDS011;2524;54.364;10.072;2023-08-07T00:09:07;1.40;;;1.30;;
5010;SDS011;2524;54.364;10.072;2023-08-07T00:11:32;1.40;;;1.40;;
5010;SDS011;2524;54.364;10.072;2023-08-07T00:13:58;1.40;;;1.40;;
5010;SDS011;2524;54.364;10.072;2023-08-07T00:16:24;1.50;;;1.40;;
5010;SDS011;2524;54.364;10.072;2023-08-07T00:18:49;2.50;;;1.40;;
5010;SDS011;2524;54.364;10.072;2023-08-07T00:21:17;1.43;;;1.40;;
5010;SDS011;2524;54.364;10.072;2023-08-07T00:23:43;1.70;;;1.60;;
5010;SDS011;2524;54.364;10.072;2023-08-07T00:26:08;2.10;;;2.00;;
5010;SDS011;2524;54.364;10.072;2023-08-07T00:28:34;1.90;;;1.80;;
5010;SDS011;2524;54.364;10.072;2023-08-07T00:30:59;1.50;;;1.40;;
5010;SDS011;2524;54.364;10.072;2023-08-07T00:33:25;1.30;;;1.30;;
5010;SDS011;2524;54.364;10.072;2023-08-07T00:35:50;1.13;;;1.13;;
5010;SDS011;2524;54.364;10.072;2023-08-07T00:38:16;1.67;;;1.57;;
5010;SDS011;2524;54.364;10.072;2023-08-07T00:40:41;1.30;;;1.30;;
5010;SDS011;2524;54.364;10.072;2023-08-07T00:43:07;1.67;;;1.50;;
5010;SDS011;2524;54.364;10.072;2023-08-07T00:45:34;1.80;;;1.73;;
5010;SDS011;2524;54.364;10.072;2023-08-07T00:48:02;2.30;;;1.70;;
5010;SDS011;2524;54.364;10.072;2023-08-07T00:50:29;2.50;;;2.13;;
5010;SDS011;2524;54.364;10.072;2023-08-07T00:52:54;1.60;;;1.60;;
5010;SDS011;2524;54.364;10.072;2023-08-07T00:55:20;1.70;;;1.60;;
5010;SDS011;2524;54.364;10.072;2023-08-07T00:57:46;1.67;;;1.60;;
5010;SDS011;2524;54.364;10.072;2023-08-07T01:00:12;1.73;;;1.63;;
5010;SDS011;2524;54.364;10.072;2023-08-07T01:02:39;1.50;;;1.40;;
5010;SDS011;2524;54.364;10.072;2023-08-07T01:05:05;2.67;;;1.70;;
5010;SDS011;2524;54.364;10.072;2023-08-07T01:07:31;1.60;;;1.50;;
5010;SDS011;2524;54.364;10.072;2023-08-07T01:09:56;2.20;;;1.40;;
5010;SDS011;2524;54.364;10.072;2023-08-07T01:12:28;2.23;;;1.70;;
5010;SDS011;2524;54.364;10.072;2023-08-07T01:15:05;1.80;;;1.70;;
5010;SDS011;2524;54.364;10.072;2023-08-07T01:17:37;1.63;;;1.53;;
5010;SDS011;2524;54.364;10.072;2023-08-07T01:20:04;5.60;;;1.63;;
5010;SDS011;2524;54.364;10.072;2023-08-07T01:22:30;1.77;;;1.67;;
5010;SDS011;2524;54.364;10.072;2023-08-07T01:24:55;1.53;;;1.50;;
5010;SDS011;2524;54.364;10.072;2023-08-07T01:27:24;1.60;;;1.50;;
5010;SDS011;2524;54.364;10.072;2023-08-07T01:30:15;2.07;;;1.87;;
5010;SDS011;2524;54.364;10.072;2023-08-07T01:35:49;2.10;;;1.87;;
5010;SDS011;2524;54.364;10.072;2023-08-07T01:38:20;1.57;;;1.43;;
5010;SDS011;2524;54.364;10.072;2023-08-07T01:40:49;1.90;;;1.80;;
5010;SDS011;2524;54.364;10.072;2023-08-07T01:43:15;2.80;;;2.00;;
5010;SDS011;2524;54.364;10.072;2023-08-07T01:45:41;2.40;;;2.13;;
5010;SDS011;2524;54.364;10.072;2023-08-07T01:48:07;1.70;;;1.60;;
5010;SDS011;2524;54.364;10.072;2023-08-07T01:50:32;2.07;;;1.90;;
5010;SDS011;2524;54.364;10.072;2023-08-07T01:52:58;1.80;;;1.70;;
5010;SDS011;2524;54.364;10.072;2023-08-07T01:55:25;3.60;;;3.30;;
5010;SDS011;2524;54.364;10.072;2023-08-07T01:57:51;2.70;;;2.20;;
5010;SDS011;2524;54.364;10.072;2023-08-07T02:00:16;2.03;;;1.93;;
5010;SDS011;2524;54.364;10.072;2023-08-07T02:02:42;2.20;;;2.10;;
5010;SDS011;2524;54.364;10.072;2023-08-07T02:05:10;13.23;;;2.10;;
5010;SDS011;2524;54.364;10.072;2023-08-07T02:07:35;2.27;;;2.17;;
5010;SDS011;2524;54.364;10.072;2023-08-07T02:10:01;2.33;;;2.23;;
5010;SDS011;2524;54.364;10.072;2023-08-07T02:12:26;2.47;;;1.93;;
5010;SDS011;2524;54.364;10.072;2023-08-07T02:14:54;1.93;;;1.93;;
5010;SDS011;2524;54.364;10.072;2023-08-07T02:17:20;2.30;;;2.10;;
5010;SDS011;2524;54.364;10.072;2023-08-07T02:19:47;1.80;;;1.67;;
5010;SDS011;2524;54.364;10.072;2023-08-07T02:22:12;1.93;;;1.83;;
5010;SDS011;2524;54.364;10.072;2023-08-07T02:24:38;2.20;;;2.10;;
5010;SDS011;2524;54.364;10.072;2023-08-07T02:27:04;2.90;;;2.33;;
5010;SDS011;2524;54.364;10.072;2023-08-07T02:29:29;5.50;;;2.27;;
5010;SDS011;2524;54.364;10.072;2023-08-07T02:31:55;2.23;;;2.03;;
5010;SDS011;2524;54.364;10.072;2023-08-07T02:34:21;3.07;;;2.17;;
5010;SDS011;2524;54.364;10.072;2023-08-07T02:36:46;3.00;;;2.20;;
5010;SDS011;2524;54.364;10.072;2023-08-07T02:39:13;2.50;;;2.07;;
5010;SDS011;2524;54.364;10.072;2023-08-07T02:41:38;3.33;;;2.20;;
5010;SDS011;2524;54.364;10.072;2023-08-07T02:44:04;3.63;;;1.80;;
5010;SDS011;2524;54.364;10.072;2023-08-07T02:46:29;2.67;;;2.40;;
5010;SDS011;2524;54.364;10.072;2023-08-07T02:48:55;3.33;;;2.23;;
5010;SDS011;2524;54.364;10.072;2023-08-07T02:51:20;3.30;;;3.00;;
5010;SDS011;2524;54.364;10.072;2023-08-07T02:53:46;2.00;;;1.90;;
5010;SDS011;2524;54.364;10.072;2023-08-07T02:56:11;3.10;;;2.27;;
5010;SDS011;2524;54.364;10.072;2023-08-07T02:58:37;2.20;;;1.90;;
5010;SDS011;2524;54.364;10.072;2023-08-07T03:01:03;2.40;;;2.20;;
5010;SDS011;2524;54.364;10.072;2023-08-07T03:03:31;2.30;;;2.10;;
5010;SDS011;2524;54.364;10.072;2023-08-07T03:05:56;1.90;;;1.70;;
5010;SDS011;2524;54.364;10.072;2023-08-07T03:08:22;2.27;;;2.07;;
5010;SDS011;2524;54.364;10.072;2023-08-07T03:10:52;5.50;;;2.40;;
5010;SDS011;2524;54.364;10.072;2023-08-07T03:13:20;2.10;;;2.00;;
5010;SDS011;2524;54.364;10.072;2023-08-07T03:15:47;2.17;;;1.60;;
5010;SDS011;2524;54.364;10.072;2023-08-07T03:18:14;2.50;;;2.30;;
5010;SDS011;2524;54.364;10.072;2023-08-07T03:20:41;2.37;;;2.17;;
5010;SDS011;2524;54.364;10.072;2023-08-07T03:23:08;3.43;;;1.70;;
5010;SDS011;2524;54.364;10.072;2023-08-07T03:25:34;2.23;;;1.90;;
5010;SDS011;2524;54.364;10.072;2023-08-07T03:27:59;7.13;;;2.33;;
5010;SDS011;2524;54.364;10.072;2023-08-07T03:30:25;4.07;;;2.27;;
5010;SDS011;2524;54.364;10.072;2023-08-07T03:32:50;2.13;;;1.93;;
5010;SDS011;2524;54.364;10.072;2023-08-07T03:35:16;3.60;;;2.20;;
5010;SDS011;2524;54.364;10.072;2023-08-07T03:37:41;3.87;;;2.17;;
5010;SDS011;2524;54.364;10.072;2023-08-07T03:40:07;2.57;;;2.00;;
5010;SDS011;2524;54.364;10.072;2023-08-07T03:42:33;1.90;;;1.80;;
5010;SDS011;2524;54.364;10.072;2023-08-07T03:44:58;3.90;;;2.13;;
5010;SDS011;2524;54.364;10.072;2023-08-07T03:47:24;4.53;;;2.40;;
5010;SDS011;2524;54.364;10.072;2023-08-07T03:49:49;1.93;;;1.83;;
5010;SDS011;2524;54.364;10.072;2023-08-07T03:52:15;1.83;;;1.63;;
5010;SDS011;2524;54.364;10.072;2023-08-07T03:54:42;2.60;;;2.03;;
5010;SDS011;2524;54.364;10.072;2023-08-07T03:57:08;3.83;;;1.83;;
5010;SDS011;2524;54.364;10.072;2023-08-07T03:59:35;1.70;;;1.60;;
5010;SDS011;2524;54.364;10.072;2023-08-07T04:02:00;2.87;;;2.20;;
5010;SDS011;2524;54.364;10.072;2023-08-07T04:04:26;3.07;;;1.90;;
5010;SDS011;2524;54.364;10.072;2023-08-07T04:06:51;2.90;;;2.00;;
5010;SDS011;2524;54.364;10.072;2023-08-07T04:09:17;2.20;;;2.00;;
5010;SDS011;2524;54.364;10.072;2023-08-07T04:11:42;2.10;;;1.90;;
5010;SDS011;2524;54.364;10.072;2023-08-07T04:14:08;3.03;;;2.00;;
5010;SDS011;2524;54.364;10.072;2023-08-07T04:16:33;2.00;;;1.90;;
5010;SDS011;2524;54.364;10.072;2023-08-07T04:18:59;4.83;;;2.90;;
5010;SDS011;2524;54.364;10.072;2023-08-07T04:21:24;2.83;;;2.30;;
5010;SDS011;2524;54.364;10.072;2023-08-07T04:23:50;2.73;;;1.90;;
5010;SDS011;2524;54.364;10.072;2023-08-07T04:26:15;6.10;;;2.30;;
5010;SDS011;2524;54.364;10.072;2023-08-07T04:28:41;4.60;;;2.13;;
5010;SDS011;2524;54.364;10.072;2023-08-07T04:31:07;4.83;;;2.30;;
5010;SDS011;2524;54.364;10.072;2023-08-07T04:33:33;4.40;;;2.00;;
5010;SDS011;2524;54.364;10.072;2023-08-07T04:35:58;2.03;;;1.93;;
5010;SDS011;2524;54.364;10.072;2023-08-07T04:38:24;2.50;;;2.07;;
5010;SDS011;2524;54.364;10.072;2023-08-07T04:40:50;3.63;;;2.87;;
5010;SDS011;2524;54.364;10.072;2023-08-07T04:43:17;5.10;;;2.80;;
5010;SDS011;2524;54.364;10.072;2023-08-07T04:45:44;2.60;;;1.87;;
5010;SDS011;2524;54.364;10.072;2023-08-07T04:48:10;2.90;;;2.13;;
5010;SDS011;2524;54.364;10.072;2023-08-07T04:50:36;4.80;;;2.33;;
5010;SDS011;2524;54.364;10.072;2023-08-07T04:53:04;4.60;;;1.80;;
5010;SDS011;2524;54.364;10.072;2023-08-07T04:55:30;4.73;;;2.00;;
5010;SDS011;2524;54.364;10.072;2023-08-07T04:57:55;2.17;;;2.00;;
5010;SDS011;2524;54.364;10.072;2023-08-07T05:00:21;4.50;;;2.43;;
5010;SDS011;2524;54.364;10.072;2023-08-07T05:02:47;3.93;;;2.50;;
5010;SDS011;2524;54.364;10.072;2023-08-07T05:05:13;4.60;;;2.80;;
5010;SDS011;2524;54.364;10.072;2023-08-07T05:07:40;5.93;;;2.47;;
5010;SDS011;2524;54.364;10.072;2023-08-07T05:10:06;3.97;;;2.30;;
5010;SDS011;2524;54.364;10.072;2023-08-07T05:12:32;3.37;;;2.00;;
5010;SDS011;2524;54.364;10.072;2023-08-07T05:14:57;5.40;;;2.70;;
5010;SDS011;2524;54.364;10.072;2023-08-07T05:17:23;6.47;;;2.10;;
5010;SDS011;2524;54.364;10.072;2023-08-07T05:19:48;8.50;;;2.60;;
5010;SDS011;2524;54.364;10.072;2023-08-07T05:22:15;8.77;;;2.50;;
5010;SDS011;2524;54.364;10.072;2023-08-07T05:24:41;10.93;;;3.33;;
5010;SDS011;2524;54.364;10.072;2023-08-07T05:27:08;8.07;;;3.17;;
5010;SDS011;2524;54.364;10.072;2023-08-07T05:29:34;7.70;;;3.07;;
5010;SDS011;2524;54.364;10.072;2023-08-07T05:32:07;5.33;;;2.60;;
5010;SDS011;2524;54.364;10.072;2023-08-07T05:34:34;5.20;;;2.40;;
5010;SDS011;2524;54.364;10.072;2023-08-07T05:36:59;9.13;;;3.30;;
5010;SDS011;2524;54.364;10.072;2023-08-07T05:39:25;13.10;;;3.67;;
5010;SDS011;2524;54.364;10.072;2023-08-07T05:41:50;8.00;;;3.13;;
5010;SDS011;2524;54.364;10.072;2023-08-07T05:44:18;10.67;;;3.20;;
5010;SDS011;2524;54.364;10.072;2023-08-07T05:46:44;5.37;;;2.73;;
5010;SDS011;2524;54.364;10.072;2023-08-07T05:49:09;19.13;;;3.87;;
5010;SDS011;2524;54.364;10.072;2023-08-07T05:51:35;7.47;;;2.93;;
5010;SDS011;2524;54.364;10.072;2023-08-07T05:54:01;8.43;;;3.20;;
5010;SDS011;2524;54.364;10.072;2023-08-07T05:56:26;12.27;;;3.67;;
5010;SDS011;2524;54.364;10.072;2023-08-07T05:58:52;8.57;;;3.30;;
5010;SDS011;2524;54.364;10.072;2023-08-07T06:01:17;4.93;;;2.50;;
5010;SDS011;2524;54.364;10.072;2023-08-07T06:03:43;9.40;;;3.53;;
5010;SDS011;2524;54.364;10.072;2023-08-07T06:06:08;6.00;;;3.03;;
5010;SDS011;2524;54.364;10.072;2023-08-07T06:08:34;15.00;;;3.33;;
5010;SDS011;2524;54.364;10.072;2023-08-07T06:10:59;9.40;;;2.80;;
5010;SDS011;2524;54.364;10.072;2023-08-07T06:13:28;10.30;;;3.80;;
5010;SDS011;2524;54.364;10.072;2023-08-07T06:15:54;4.83;;;3.00;;
5010;SDS011;2524;54.364;10.072;2023-08-07T06:18:20;7.10;;;3.10;;
5010;SDS011;2524;54.364;10.072;2023-08-07T06:20:45;8.23;;;3.10;;
5010;SDS011;2524;54.364;10.072;2023-08-07T06:23:11;15.43;;;5.10;;
5010;SDS011;2524;54.364;10.072;2023-08-07T06:25:37;9.63;;;3.47;;
5010;SDS011;2524;54.364;10.072;2023-08-07T06:28:03;11.87;;;3.67;;
5010;SDS011;2524;54.364;10.072;2023-08-07T06:30:30;11.00;;;2.57;;
5010;SDS011;2524;54.364;10.072;2023-08-07T06:32:56;7.63;;;3.33;;
5010;SDS011;2524;54.364;10.072;2023-08-07T06:35:22;9.57;;;4.67;;
5010;SDS011;2524;54.364;10.072;2023-08-07T06:37:47;8.83;;;3.37;;
5010;SDS011;2524;54.364;10.072;2023-08-07T06:40:13;10.17;;;3.80;;
5010;SDS011;2524;54.364;10.072;2023-08-07T06:42:39;9.40;;;3.13;;
5010;SDS011;2524;54.364;10.072;2023-08-07T06:45:05;10.83;;;3.37;;
5010;SDS011;2524;54.364;10.072;2023-08-07T06:47:31;11.67;;;3.37;;
5010;SDS011;2524;54.364;10.072;2023-08-07T06:49:57;8.73;;;3.17;;
5010;SDS011;2524;54.364;10.072;2023-08-07T06:52:22;12.57;;;3.97;;
5010;SDS011;2524;54.364;10.072;2023-08-07T06:54:48;7.47;;;3.10;;
5010;SDS011;2524;54.364;10.072;2023-08-07T06:57:14;9.30;;;3.43;;
5010;SDS011;2524;54.364;10.072;2023-08-07T06:59:39;7.00;;;3.00;;
5010;SDS011;2524;54.364;10.072;2023-08-07T07:02:05;12.87;;;3.77;;
5010;SDS011;2524;54.364;10.072;2023-08-07T07:04:31;7.33;;;3.43;;
5010;SDS011;2524;54.364;10.072;2023-08-07T07:06:58;15.47;;;3.73;;
5010;SDS011;2524;54.364;10.072;2023-08-07T07:09:23;8.30;;;3.30;;
5010;SDS011;2524;54.364;10.072;2023-08-07T07:11:49;17.30;;;4.43;;
5010;SDS011;2524;54.364;10.072;2023-08-07T07:14:15;7.10;;;3.10;;
5010;SDS011;2524;54.364;10.072;2023-08-07T07:16:40;11.27;;;3.97;;
5010;SDS011;2524;54.364;10.072;2023-08-07T07:19:07;10.00;;;3.37;;
5010;SDS011;2524;54.364;10.072;2023-08-07T07:21:34;8.03;;;3.00;;
5010;SDS011;2524;54.364;10.072;2023-08-07T07:24:00;10.17;;;3.60;;
5010;SDS011;2524;54.364;10.072;2023-08-07T07:26:27;7.10;;;2.90;;
5010;SDS011;2524;54.364;10.072;2023-08-07T07:28:52;6.93;;;3.07;;
5010;SDS011;2524;54.364;10.072;2023-08-07T07:31:18;11.60;;;3.53;;
5010;SDS011;2524;54.364;10.072;2023-08-07T07:33:43;11.07;;;3.90;;
5010;SDS011;2524;54.364;10.072;2023-08-07T07:36:15;10.83;;;3.80;;
5010;SDS011;2524;54.364;10.072;2023-08-07T07:38:42;6.80;;;3.10;;
5010;SDS011;2524;54.364;10.072;2023-08-07T07:41:08;9.70;;;3.70;;
5010;SDS011;2524;54.364;10.072;2023-08-07T07:43:36;10.20;;;3.90;;
5010;SDS011;2524;54.364;10.072;2023-08-07T07:46:02;10.23;;;4.07;;
5010;SDS011;2524;54.364;10.072;2023-08-07T07:48:27;16.03;;;3.87;;
5010;SDS011;2524;54.364;10.072;2023-08-07T07:50:57;14.07;;;3.93;;
5010;SDS011;2524;54.364;10.072;2023-08-07T07:53:24;13.20;;;3.73;;
5010;SDS011;2524;54.364;10.072;2023-08-07T07:55:50;7.47;;;3.57;;
5010;SDS011;2524;54.364;10.072;2023-08-07T07:58:15;13.30;;;4.27;;
5010;SDS011;2524;54.364;10.072;2023-08-07T08:00:41;15.47;;;3.70;;
5010;SDS011;2524;54.364;10.072;2023-08-07T08:03:07;9.93;;;3.67;;
5010;SDS011;2524;54.364;10.072;2023-08-07T08:05:33;17.97;;;4.17;;
5010;SDS011;2524;54.364;10.072;2023-08-07T08:07:59;11.70;;;4.07;;
5010;SDS011;2524;54.364;10.072;2023-08-07T08:10:26;10.77;;;4.20;;
5010;SDS011;2524;54.364;10.072;2023-08-07T08:12:52;11.17;;;3.63;;
5010;SDS011;2524;54.364;10.072;2023-08-07T08:15:19;10.93;;;4.17;;
5010;SDS011;2524;54.364;10.072;2023-08-07T08:17:48;13.07;;;4.53;;
5010;SDS011;2524;54.364;10.072;2023-08-07T08:20:14;12.60;;;3.50;;
5010;SDS011;2524;54.364;10.072;2023-08-07T08:22:46;14.40;;;4.00;;
5010;SDS011;2524;54.364;10.072;2023-08-07T08:25:12;8.93;;;3.53;;
5010;SDS011;2524;54.364;10.072;2023-08-07T08:27:38;12.70;;;3.33;;
5010;SDS011;2524;54.364;10.072;2023-08-07T08:30:04;12.83;;;3.67;;
5010;SDS011;2524;54.364;10.072;2023-08-07T08:32:31;12.73;;;3.80;;
5010;SDS011;2524;54.364;10.072;2023-08-07T08:34:56;13.47;;;4.10;;
5010;SDS011;2524;54.364;10.072;2023-08-07T08:37:22;18.10;;;3.97;;
5010;SDS011;2524;54.364;10.072;2023-08-07T08:39:47;11.03;;;3.90;;
5010;SDS011;2524;54.364;10.072;2023-08-07T08:42:13;11.20;;;3.13;;
5010;SDS011;2524;54.364;10.072;2023-08-07T08:44:43;13.03;;;3.83;;
5010;SDS011;2524;54.364;10.072;2023-08-07T08:47:18;15.50;;;4.30;;
5010;SDS011;2524;54.364;10.072;2023-08-07T08:50:02;6.73;;;3.10;;
5010;SDS011;2524;54.364;10.072;2023-08-07T08:52:31;12.70;;;4.27;;
5010;SDS011;2524;54.364;10.072;2023-08-07T08:54:59;11.17;;;3.70;;
5010;SDS011;2524;54.364;10.072;2023-08-07T08:57:26;14.90;;;4.30;;
5010;SDS011;2524;54.364;10.072;2023-08-07T08:59:52;12.40;;;3.60;;
5010;SDS011;2524;54.364;10.072;2023-08-07T09:02:18;14.37;;;4.33;;
5010;SDS011;2524;54.364;10.072;2023-08-07T09:04:44;9.53;;;3.40;;
5010;SDS011;2524;54.364;10.072;2023-08-07T09:07:14;13.00;;;3.87;;
5010;SDS011;2524;54.364;10.072;2023-08-07T09:09:41;11.40;;;3.37;;
5010;SDS011;2524;54.364;10.072;2023-08-07T09:12:10;13.23;;;3.80;;
5010;SDS011;2524;54.364;10.072;2023-08-07T09:14:52;7.30;;;3.00;;
5010;SDS011;2524;54.364;10.072;2023-08-07T09:17:27;10.90;;;3.93;;
5010;SDS011;2524;54.364;10.072;2023-08-07T09:19:56;8.90;;;4.00;;
5010;SDS011;2524;54.364;10.072;2023-08-07T09:22:22;15.90;;;3.73;;
5010;SDS011;2524;54.364;10.072;2023-08-07T09:24:48;12.90;;;4.23;;
5010;SDS011;2524;54.364;10.072;2023-08-07T09:27:14;14.93;;;4.57;;
5010;SDS011;2524;54.364;10.072;2023-08-07T09:29:40;10.80;;;3.90;;
5010;SDS011;2524;54.364;10.072;2023-08-07T09:32:06;14.57;;;4.33;;
5010;SDS011;2524;54.364;10.072;2023-08-07T09:34:43;13.10;;;3.73;;
5010;SDS011;2524;54.364;10.072;2023-08-07T09:37:09;8.30;;;3.70;;
5010;SDS011;2524;54.364;10.072;2023-08-07T09:39:35;12.53;;;4.20;;
5010;SDS011;2524;54.364;10.072;2023-08-07T09:42:04;19.80;;;4.60;;
5010;SDS011;2524;54.364;10.072;2023-08-07T09:44:37;13.73;;;3.60;;
5010;SDS011;2524;54.364;10.072;2023-08-07T09:47:12;12.47;;;4.37;;
5010;SDS011;2524;54.364;10.072;2023-08-07T09:49:43;13.67;;;3.27;;
5010;SDS011;2524;54.364;10.072;2023-08-07T09:52:09;13.40;;;4.00;;
5010;SDS011;2524;54.364;10.072;2023-08-07T09:54:38;11.23;;;3.20;;
5010;SDS011;2524;54.364;10.072;2023-08-07T09:57:04;10.67;;;3.60;;
5010;SDS011;2524;54.364;10.072;2023-08-07T09:59:31;9.13;;;3.47;;
5010;SDS011;2524;54.364;10.072;2023-08-07T10:01:58;8.93;;;3.47;;
5010;SDS011;2524;54.364;10.072;2023-08-07T10:04:26;11.33;;;3.10;;
5010;SDS011;2524;54.364;10.072;2023-08-07T10:06:51;10.60;;;2.80;;
5010;SDS011;2524;54.364;10.072;2023-08-07T10:09:18;8.27;;;3.30;;
5010;SDS011;2524;54.364;10.072;2023-08-07T10:11:44;9.07;;;3.37;;
5010;SDS011;2524;54.364;10.072;2023-08-07T10:14:09;9.03;;;3.10;;
5010;SDS011;2524;54.364;10.072;2023-08-07T10:16:37;13.77;;;3.13;;
5010;SDS011;2524;54.364;10.072;2023-08-07T10:19:05;9.20;;;3.07;;
5010;SDS011;2524;54.364;10.072;2023-08-07T10:21:32;11.00;;;3.50;;
5010;SDS011;2524;54.364;10.072;2023-08-07T10:24:00;8.63;;;2.90;;
5010;SDS011;2524;54.364;10.072;2023-08-07T10:26:28;12.97;;;3.40;;
5010;SDS011;2524;54.364;10.072;2023-08-07T10:28:55;10.20;;;2.90;;
5010;SDS011;2524;54.364;10.072;2023-08-07T10:31:22;13.60;;;3.10;;
5010;SDS011;2524;54.364;10.072;2023-08-07T10:33:48;15.17;;;3.10;;
5010;SDS011;2524;54.364;10.072;2023-08-07T10:36:15;9.67;;;3.00;;
5010;SDS011;2524;54.364;10.072;2023-08-07T10:38:42;7.30;;;3.20;;
5010;SDS011;2524;54.364;10.072;2023-08-07T10:41:08;6.20;;;2.40;;
5010;SDS011;2524;54.364;10.072;2023-08-07T10:43:44;8.53;;;2.87;;
5010;SDS011;2524;54.364;10.072;2023-08-07T10:46:19;4.77;;;2.63;;
5010;SDS011;2524;54.364;10.072;2023-08-07T10:48:46;13.47;;;3.13;;
5010;SDS011;2524;54.364;10.072;2023-08-07T10:51:16;9.60;;;3.17;;
5010;SDS011;2524;54.364;10.072;2023-08-07T10:53:43;7.30;;;2.07;;
5010;SDS011;2524;54.364;10.072;2023-08-07T10:56:14;6.40;;;2.60;;
5010;SDS011;2524;54.364;10.072;2023-08-07T10:58:40;7.30;;;2.63;;
5010;SDS011;2524;54.364;10.072;2023-08-07T11:01:16;10.67;;;2.57;;
5010;SDS011;2524;54.364;10.072;2023-08-07T11:03:43;5.37;;;2.37;;
5010;SDS011;2524;54.364;10.072;2023-08-07T11:06:09;8.67;;;2.60;;
5010;SDS011;2524;54.364;10.072;2023-08-07T11:08:35;9.80;;;2.80;;
5010;SDS011;2524;54.364;10.072;2023-08-07T11:11:05;8.53;;;2.87;;
5010;SDS011;2524;54.364;10.072;2023-08-07T11:13:31;8.23;;;3.20;;
5010;SDS011;2524;54.364;10.072;2023-08-07T11:16:00;5.90;;;2.40;;
5010;SDS011;2524;54.364;10.072;2023-08-07T11:18:27;9.27;;;3.20;;
5010;SDS011;2524;54.364;10.072;2023-08-07T11:20:54;9.93;;;2.50;;
5010;SDS011;2524;54.364;10.072;2023-08-07T11:23:27;8.30;;;2.70;;
5010;SDS011;2524;54.364;10.072;2023-08-07T11:25:53;6.77;;;2.30;;
5010;SDS011;2524;54.364;10.072;2023-08-07T11:28:20;8.47;;;3.33;;
5010;SDS011;2524;54.364;10.072;2023-08-07T11:30:48;6.80;;;2.13;;
5010;SDS011;2524;54.364;10.072;2023-08-07T11:33:14;9.80;;;3.13;;
5010;SDS011;2524;54.364;10.072;2023-08-07T11:35:41;12.13;;;2.67;;
5010;SDS011;2524;54.364;10.072;2023-08-07T11:38:07;8.30;;;3.37;;
5010;SDS011;2524;54.364;10.072;2023-08-07T11:40:33;12.13;;;3.50;;
5010;SDS011;2524;54.364;10.072;2023-08-07T11:42:59;8.67;;;3.00;;
5010;SDS011;2524;54.364;10.072;2023-08-07T11:45:25;9.73;;;3.13;;
5010;SDS011;2524;54.364;10.072;2023-08-07T11:47:50;14.03;;;3.47;;
5010;SDS011;2524;54.364;10.072;2023-08-07T11:50:16;9.10;;;2.83;;
5010;SDS011;2524;54.364;10.072;2023-08-07T11:52:42;7.30;;;3.03;;
5010;SDS011;2524;54.364;10.072;2023-08-07T11:55:08;5.60;;;2.60;;
5010;SDS011;2524;54.364;10.072;2023-08-07T11:57:34;12.13;;;2.90;;
5010;SDS011;2524;54.364;10.072;2023-08-07T12:00:05;9.93;;;3.10;;
5010;SDS011;2524;54.364;10.072;2023-08-07T12:02:35;6.57;;;2.80;;
5010;SDS011;2524;54.364;10.072;2023-08-07T12:05:01;10.10;;;2.67;;
5010;SDS011;2524;54.364;10.072;2023-08-07T12:07:27;13.13;;;2.77;;
5010;SDS011;2524;54.364;10.072;2023-08-07T12:09:53;14.10;;;3.20;;
5010;SDS011;2524;54.364;10.072;2023-08-07T12:12:19;9.00;;;2.90;;
5010;SDS011;2524;54.364;10.072;2023-08-07T12:14:45;9.00;;;2.90;;
5010;SDS011;2524;54.364;10.072;2023-08-07T12:17:10;15.50;;;3.20;;
5010;SDS011;2524;54.364;10.072;2023-08-07T12:19:39;12.30;;;3.17;;
5010;SDS011;2524;54.364;10.072;2023-08-07T12:22:09;9.20;;;2.60;;
5010;SDS011;2524;54.364;10.072;2023-08-07T12:24:35;8.90;;;2.80;;
5010;SDS011;2524;54.364;10.072;2023-08-07T12:27:02;9.63;;;3.10;;
5010;SDS011;2524;54.364;10.072;2023-08-07T12:29:29;13.63;;;3.13;;
5010;SDS011;2524;54.364;10.072;2023-08-07T12:31:54;6.60;;;2.90;;
5010;SDS011;2524;54.364;10.072;2023-08-07T12:34:20;13.63;;;2.80;;
5010;SDS011;2524;54.364;10.072;2023-08-07T12:36:46;11.60;;;2.57;;
5010;SDS011;2524;54.364;10.072;2023-08-07T12:39:12;8.13;;;2.80;;
5010;SDS011;2524;54.364;10.072;2023-08-07T12:41:37;8.03;;;2.83;;
5010;SDS011;2524;54.364;10.072;2023-08-07T12:44:03;9.20;;;3.60;;
5010;SDS011;2524;54.364;10.072;2023-08-07T12:46:29;16.40;;;3.17;;
5010;SDS011;2524;54.364;10.072;2023-08-07T12:48:54;8.53;;;2.57;;
5010;SDS011;2524;54.364;10.072;2023-08-07T12:51:20;7.17;;;2.33;;
5010;SDS011;2524;54.364;10.072;2023-08-07T12:53:45;9.03;;;2.47;;
5010;SDS011;2524;54.364;10.072;2023-08-07T12:56:12;4.43;;;2.50;;
5010;SDS011;2524;54.364;10.072;2023-08-07T12:58:38;10.60;;;2.37;;
5010;SDS011;2524;54.364;10.072;2023-08-07T13:01:04;10.63;;;3.20;;
5010;SDS011;2524;54.364;10.072;2023-08-07T13:03:29;11.70;;;3.20;;
5010;SDS011;2524;54.364;10.072;2023-08-07T13:05:55;12.70;;;2.80;;
5010;SDS011;2524;54.364;10.072;2023-08-07T13:08:20;12.97;;;2.70;;
5010;SDS011;2524;54.364;10.072;2023-08-07T13:10:46;9.17;;;2.97;;
5010;SDS011;2524;54.364;10.072;2023-08-07T13:13:11;9.13;;;2.80;;
5010;SDS011;2524;54.364;10.072;2023-08-07T13:15:37;9.03;;;3.00;;
5010;SDS011;2524;54.364;10.072;2023-08-07T13:18:03;7.37;;;2.97;;
5010;SDS011;2524;54.364;10.072;2023-08-07T13:20:28;14.67;;;2.90;;
5010;SDS011;2524;54.364;10.072;2023-08-07T13:22:58;7.87;;;3.20;;
5010;SDS011;2524;54.364;10.072;2023-08-07T13:25:24;7.93;;;2.80;;
5010;SDS011;2524;54.364;10.072;2023-08-07T13:27:49;9.77;;;2.80;;
5010;SDS011;2524;54.364;10.072;2023-08-07T13:30:15;13.43;;;4.00;;
5010;SDS011;2524;54.364;10.072;2023-08-07T13:32:41;10.03;;;3.50;;
5010;SDS011;2524;54.364;10.072;2023-08-07T13:35:06;10.63;;;3.10;;
5010;SDS011;2524;54.364;10.072;2023-08-07T13:37:33;9.23;;;3.03;;
5010;SDS011;2524;54.364;10.072;2023-08-07T13:39:59;12.47;;;3.17;;
5010;SDS011;2524;54.364;10.072;2023-08-07T13:42:25;15.43;;;3.80;;
5010;SDS011;2524;54.364;10.072;2023-08-07T13:44:54;6.27;;;3.13;;
5010;SDS011;2524;54.364;10.072;2023-08-07T13:47:20;10.17;;;2.87;;
5010;SDS011;2524;54.364;10.072;2023-08-07T13:49:46;19.37;;;3.60;;
5010;SDS011;2524;54.364;10.072;2023-08-07T13:52:12;15.20;;;3.00;;
5010;SDS011;2524;54.364;10.072;2023-08-07T13:54:38;12.37;;;3.97;;
5010;SDS011;2524;54.364;10.072;2023-08-07T13:57:03;10.20;;;2.83;;
5010;SDS011;2524;54.364;10.072;2023-08-07T13:59:29;7.27;;;2.80;;
5010;SDS011;2524;54.364;10.072;2023-08-07T14:01:55;10.10;;;2.47;;
5010;SDS011;2524;54.364;10.072;2023-08-07T14:04:21;13.07;;;3.70;;
5010;SDS011;2524;54.364;10.072;2023-08-07T14:06:47;8.60;;;2.97;;
5010;SDS011;2524;54.364;10.072;2023-08-07T14:09:12;6.27;;;2.73;;
5010;SDS011;2524;54.364;10.072;2023-08-07T14:11:39;11.90;;;3.07;;
5010;SDS011;2524;54.364;10.072;2023-08-07T14:14:04;11.03;;;2.87;;
5010;SDS011;2524;54.364;10.072;2023-08-07T14:16:30;22.87;;;3.07;;
5010;SDS011;2524;54.364;10.072;2023-08-07T14:18:56;10.70;;;2.97;;
5010;SDS011;2524;54.364;10.072;2023-08-07T14:21:22;11.60;;;3.03;;
5010;SDS011;2524;54.364;10.072;2023-08-07T14:23:47;9.43;;;2.67;;
5010;SDS011;2524;54.364;10.072;2023-08-07T14:26:14;6.63;;;2.70;;
5010;SDS011;2524;54.364;10.072;2023-08-07T14:28:41;12.60;;;3.03;;
5010;SDS011;2524;54.364;10.072;2023-08-07T14:31:07;5.93;;;2.83;;
5010;SDS011;2524;54.364;10.072;2023-08-07T14:33:34;6.33;;;2.90;;
5010;SDS011;2524;54.364;10.072;2023-08-07T14:36:00;12.40;;;2.73;;
5010;SDS011;2524;54.364;10.072;2023-08-07T14:38:27;7.53;;;2.97;;
5010;SDS011;2524;54.364;10.072;2023-08-07T14:40:53;8.67;;;3.13;;
5010;SDS011;2524;54.364;10.072;2023-08-07T14:43:19;9.27;;;2.80;;
5010;SDS011;2524;54.364;10.072;2023-08-07T14:45:44;9.43;;;3.50;;
5010;SDS011;2524;54.364;10.072;2023-08-07T14:48:10;17.93;;;4.17;;
5010;SDS011;2524;54.364;10.072;2023-08-07T14:50:35;7.60;;;3.20;;
5010;SDS011;2524;54.364;10.072;2023-08-07T14:53:01;8.33;;;3.47;;
5010;SDS011;2524;54.364;10.072;2023-08-07T14:55:27;9.57;;;2.83;;
5010;SDS011;2524;54.364;10.072;2023-08-07T14:57:52;11.43;;;3.10;;